Time;durP1;ratioP1;P1;durP2;ratioP2;P2;SDS_P1;SDS_P2;PMS_P1;PMS_P2;Temp;Humidity;BMP_temperature;BMP_pressure;BME280_temperature;BME280_humidity;BME280_pressure;Samples;Min_cycle;Max_cycle;Signal;HPM_P1;HPM_P2
2023/08/29 00:00:47;;;;;;;2.75;1.50;;;22.30;91.90;;;;;;5060912;28;20052;-65
2023/08/29 00:03:12;;;;;;;2.13;1.30;;;22.20;93.20;;;;;;5074678;28;20071;-65
2023/08/29 00:05:38;;;;;;;2.70;1.60;;;22.10;93.40;;;;;;5075372;28;20051;-66
2023/08/29 00:08:05;;;;;;;2.95;1.60;;;22.10;93.10;;;;;;5058417;28;20156;-68
2023/08/29 00:10:31;;;;;;;3.58;1.40;;;22.20;93.00;;;;;;5075106;28;20094;-64
2023/08/29 00:12:57;;;;;;;1.98;1.42;;;22.20;93.00;;;;;;5059881;28;20048;-65
2023/08/29 00:15:23;;;;;;;3.90;1.50;;;22.20;91.90;;;;;;5076543;28;20036;-65
2023/08/29 00:17:48;;;;;;;2.05;1.38;;;22.10;93.30;;;;;;5076798;28;20040;-63
2023/08/29 00:20:14;;;;;;;2.88;1.60;;;22.10;91.80;;;;;;5057400;28;20064;-63
2023/08/29 00:22:40;;;;;;;2.83;1.50;;;22.20;91.90;;;;;;5056993;28;20414;-63
2023/08/29 00:25:06;;;;;;;2.72;1.10;;;22.00;92.90;;;;;;5074065;28;20113;-63
2023/08/29 00:27:32;;;;;;;3.47;1.40;;;22.10;91.80;;;;;;5039794;28;20067;-64
2023/08/29 00:29:58;;;;;;;2.25;1.38;;;22.20;91.90;;;;;;5073820;28;20040;-64
2023/08/29 00:32:24;;;;;;;2.63;1.40;;;22.00;93.20;;;;;;5086963;28;20045;-64
2023/08/29 00:34:49;;;;;;;3.70;1.58;;;21.90;93.30;;;;;;5071867;28;20075;-64
2023/08/29 00:37:15;;;;;;;3.22;1.38;;;22.20;91.90;;;;;;5094231;28;20463;-65
2023/08/29 00:39:41;;;;;;;2.78;1.33;;;21.90;91.80;;;;;;5082684;28;20043;-63
2023/08/29 00:42:07;;;;;;;3.00;1.67;;;22.20;92.20;;;;;;5070819;28;20052;-63
2023/08/29 00:44:32;;;;;;;2.22;1.42;;;22.20;91.90;;;;;;5082281;28;20083;-64
2023/08/29 00:46:58;;;;;;;4.95;1.55;;;22.00;93.00;;;;;;5057833;28;20041;-70
2023/08/29 00:49:26;;;;;;;5.47;1.80;;;22.10;91.90;;;;;;5092856;28;20497;-66
2023/08/29 00:51:52;;;;;;;3.22;1.50;;;;;;;;;;5075818;28;20126;-67
2023/08/29 00:54:18;;;;;;;3.15;1.40;;;22.10;91.00;;;;;;5092315;28;20043;-69
2023/08/29 00:56:43;;;;;;;2.33;1.42;;;22.00;91.80;;;;;;5081873;28;20040;-71
2023/08/29 00:59:09;;;;;;;2.58;1.52;;;22.10;93.00;;;;;;5038859;28;20052;-69
2023/08/29 01:01:35;;;;;;;2.60;1.60;;;21.90;91.70;;;;;;5073822;28;20596;-68
2023/08/29 01:04:02;;;;;;;2.67;1.20;;;21.90;91.80;;;;;;5070546;28;20177;-67
2023/08/29 01:06:30;;;;;;;2.55;1.35;;;21.90;91.90;;;;;;5021417;28;20053;-67
2023/08/29 01:08:57;;;;;;;2.20;1.55;;;21.90;92.90;;;;;;5073863;28;20040;-69
2023/08/29 01:11:48;;;;;;;2.42;1.40;;;21.80;91.90;;;;;;5058455;28;20052;-68
2023/08/29 01:14:32;;;;;;;2.55;1.35;;;21.80;91.30;;;;;;5042693;28;20064;-64
2023/08/29 01:17:19;;;;;;;2.30;1.48;;;22.20;91.40;;;;;;5039042;28;20052;-69
2023/08/29 01:19:48;;;;;;;3.25;1.80;;;22.00;91.50;;;;;;5055609;28;20040;-71
2023/08/29 01:22:39;;;;;;;3.63;1.60;;;22.10;93.00;;;;;;5054216;28;20075;-67
2023/08/29 01:25:10;;;;;;;4.30;1.70;;;21.80;92.80;;;;;;5080460;28;20428;-66
2023/08/29 01:27:36;;;;;;;2.97;1.60;;;21.80;92.80;;;;;;5055427;28;20490;-68
2023/08/29 01:30:03;;;;;;;4.30;1.92;;;21.80;92.80;;;;;;5061143;28;20044;-67
2023/08/29 01:32:30;;;;;;;4.20;1.80;;;22.00;91.80;;;;;;5082473;28;20043;-66
2023/08/29 01:34:57;;;;;;;3.35;1.95;;;21.60;91.80;;;;;;5071672;28;20379;-70
2023/08/29 01:37:23;;;;;;;3.83;2.00;;;22.10;91.90;;;;;;5088676;28;20055;-67
2023/08/29 01:39:48;;;;;;;3.55;1.80;;;22.10;91.80;;;;;;5072993;28;20382;-67
2023/08/29 01:42:14;;;;;;;4.03;1.92;;;22.00;93.10;;;;;;5053996;28;20048;-69
2023/08/29 01:44:40;;;;;;;3.65;1.90;;;22.10;91.90;;;;;;5080951;28;20426;-69
2023/08/29 01:47:06;;;;;;;5.10;2.22;;;21.90;91.90;;;;;;5083674;28;20048;-69
2023/08/29 01:49:34;;;;;;;4.93;2.38;;;21.70;92.80;;;;;;5072293;28;20171;-66
2023/08/29 01:52:00;;;;;;;5.10;2.70;;;22.00;93.00;;;;;;5066219;28;20044;-64
2023/08/29 01:54:26;;;;;;;6.38;2.88;;;21.80;91.90;;;;;;5091807;28;20397;-65
2023/08/29 01:56:52;;;;;;;5.03;3.00;;;21.80;92.90;;;;;;5073280;28;20036;-66
2023/08/29 01:59:18;;;;;;;5.55;3.10;;;21.80;92.00;;;;;;5074953;28;20504;-65
2023/08/29 02:01:44;;;;;;;4.78;3.05;;;21.70;91.80;;;;;;5058348;28;20043;-67
2023/08/29 02:04:10;;;;;;;5.40;3.00;;;21.90;91.90;;;;;;5083635;28;20040;-67
2023/08/29 02:06:38;;;;;;;5.65;3.15;;;22.00;93.50;;;;;;5090658;28;20039;-66
2023/08/29 02:09:04;;;;;;;5.57;3.45;;;21.80;91.90;;;;;;5090857;28;20040;-69
2023/08/29 02:11:30;;;;;;;5.32;3.45;;;21.70;92.80;;;;;;5091184;28;20043;-66
2023/08/29 02:13:55;;;;;;;5.28;3.40;;;21.80;91.80;;;;;;5091892;28;20032;-67
2023/08/29 02:16:21;;;;;;;5.78;3.65;;;21.70;91.80;;;;;;5067182;28;20047;-68
2023/08/29 02:18:47;;;;;;;6.47;3.42;;;21.80;91.80;;;;;;5073161;28;20039;-68
2023/08/29 02:21:13;;;;;;;5.20;3.20;;;21.80;93.10;;;;;;5084253;28;20044;-64
2023/08/29 02:23:39;;;;;;;6.43;3.70;;;21.80;93.20;;;;;;5053788;28;20049;-66
2023/08/29 02:26:05;;;;;;;5.30;3.60;;;21.90;93.00;;;;;;5071689;28;20056;-64
2023/08/29 02:28:37;;;;;;;4.72;3.08;;;21.80;91.90;;;;;;5072031;28;20244;-66
2023/08/29 02:31:10;;;;;;;5.22;3.13;;;21.90;93.30;;;;;;5054234;28;20528;-67
2023/08/29 02:33:37;;;;;;;6.57;3.72;;;21.70;91.30;;;;;;5078074;28;20052;-64
2023/08/29 02:36:06;;;;;;;5.40;3.30;;;21.80;92.90;;;;;;5081709;28;20407;-68
2023/08/29 02:38:32;;;;;;;5.68;3.50;;;21.70;91.90;;;;;;5024983;28;20049;-66
2023/08/29 02:40:58;;;;;;;5.40;3.60;;;22.00;92.00;;;;;;5043550;28;20093;-67
2023/08/29 02:43:24;;;;;;;5.35;3.10;;;21.80;93.00;;;;;;5072129;28;20131;-68
2023/08/29 02:45:52;;;;;;;5.38;3.25;;;21.50;93.10;;;;;;5072341;28;20056;-67
2023/08/29 02:48:18;;;;;;;5.45;3.10;;;21.60;92.90;;;;;;5053861;28;20051;-64
2023/08/29 02:50:48;;;;;;;5.45;3.45;;;21.60;93.10;;;;;;5067296;28;20044;-69
2023/08/29 02:53:16;;;;;;;5.63;3.50;;;21.90;91.90;;;;;;5076536;28;20059;-64
2023/08/29 02:55:42;;;;;;;4.97;3.05;;;21.60;93.10;;;;;;5087669;28;20051;-67
2023/08/29 02:58:08;;;;;;;5.32;3.13;;;21.60;93.00;;;;;;5059081;28;20060;-68
2023/08/29 03:00:34;;;;;;;5.75;3.10;;;21.80;93.10;;;;;;5051753;28;20391;-66
2023/08/29 03:02:59;;;;;;;5.72;3.05;;;21.70;92.90;;;;;;5062439;28;20039;-65
2023/08/29 03:05:25;;;;;;;5.03;3.00;;;21.70;93.10;;;;;;5057743;28;20572;-64
2023/08/29 03:07:51;;;;;;;5.30;2.83;;;21.60;91.80;;;;;;5050529;28;20076;-65
2023/08/29 03:10:17;;;;;;;4.70;2.90;;;21.70;93.10;;;;;;5051631;28;20045;-67
2023/08/29 03:12:43;;;;;;;5.13;2.63;;;21.70;92.90;;;;;;5061500;28;20465;-64
2023/08/29 03:15:09;;;;;;;5.82;2.95;;;21.80;92.90;;;;;;5067464;28;20120;-65
2023/08/29 03:17:35;;;;;;;5.57;2.72;;;21.60;92.00;;;;;;5052994;28;20049;-63
2023/08/29 03:20:01;;;;;;;4.50;2.90;;;21.60;93.20;;;;;;5050343;28;20041;-64
2023/08/29 03:22:26;;;;;;;4.93;2.80;;;21.70;93.40;;;;;;5056627;28;20110;-65
2023/08/29 03:24:52;;;;;;;5.03;2.65;;;21.70;92.90;;;;;;5070320;28;20091;-70
2023/08/29 03:27:18;;;;;;;4.45;2.70;;;21.70;91.90;;;;;;5069798;28;20084;-69
2023/08/29 03:29:43;;;;;;;5.07;2.58;;;21.50;93.00;;;;;;5062424;28;20045;-65
2023/08/29 03:32:10;;;;;;;4.10;2.70;;;21.70;91.90;;;;;;5066030;28;20041;-64
2023/08/29 03:34:38;;;;;;;4.60;2.70;;;21.60;93.30;;;;;;5075169;28;20037;-66
2023/08/29 03:37:07;;;;;;;5.10;2.75;;;21.80;91.50;;;;;;5057792;28;20076;-65
2023/08/29 03:39:35;;;;;;;4.00;2.50;;;21.60;92.90;;;;;;5055406;28;20114;-66
2023/08/29 03:42:03;;;;;;;4.15;2.40;;;21.40;93.10;;;;;;5062071;28;20056;-67
2023/08/29 03:44:30;;;;;;;5.25;2.60;;;21.70;92.90;;;;;;5072193;28;20048;-64
2023/08/29 03:46:57;;;;;;;4.57;2.67;;;21.70;93.10;;;;;;5060694;28;20127;-67
2023/08/29 03:49:25;;;;;;;4.60;2.55;;;21.90;91.50;;;;;;5069566;28;20072;-66
2023/08/29 03:51:52;;;;;;;5.53;2.80;;;21.70;91.60;;;;;;5074504;28;20036;-66
2023/08/29 03:54:19;;;;;;;4.88;2.55;;;21.50;91.60;;;;;;5069007;28;20036;-63
2023/08/29 03:56:47;;;;;;;5.05;2.60;;;21.50;92.90;;;;;;5069779;28;20497;-63
2023/08/29 03:59:15;;;;;;;3.67;2.10;;;21.70;91.40;;;;;;5074984;28;20080;-63
2023/08/29 04:01:43;;;;;;;4.45;2.58;;;21.70;91.70;;;;;;5074791;28;20136;-64
2023/08/29 04:04:10;;;;;;;5.32;2.78;;;21.70;93.00;;;;;;5058645;28;20358;-64
2023/08/29 04:06:35;;;;;;;4.65;2.38;;;21.50;91.80;;;;;;5060534;28;20040;-64
2023/08/29 04:09:03;;;;;;;5.28;2.45;;;21.50;92.90;;;;;;5054553;28;20052;-65
2023/08/29 04:11:29;;;;;;;3.95;2.40;;;21.60;91.90;;;;;;5054909;28;20132;-63
2023/08/29 04:13:55;;;;;;;3.80;2.30;;;21.40;93.20;;;;;;5054756;28;20587;-66
2023/08/29 04:16:20;;;;;;;3.60;2.03;;;21.50;92.90;;;;;;5052105;28;20376;-62
2023/08/29 04:18:46;;;;;;;5.72;2.20;;;21.60;92.90;;;;;;5060024;28;20045;-62
2023/08/29 04:21:12;;;;;;;5.78;2.47;;;21.60;91.80;;;;;;5064440;28;20041;-62
2023/08/29 04:23:38;;;;;;;4.55;2.45;;;21.50;92.90;;;;;;5068984;28;20040;-63
2023/08/29 04:26:03;;;;;;;4.72;2.13;;;21.60;93.20;;;;;;5053806;28;20049;-68
2023/08/29 04:28:30;;;;;;;4.18;2.00;;;21.40;92.90;;;;;;5052732;28;20084;-64
2023/08/29 04:30:56;;;;;;;3.83;2.22;;;21.80;93.50;;;;;;5067327;28;20052;-68
2023/08/29 04:33:22;;;;;;;3.80;2.15;;;21.40;92.90;;;;;;5072775;28;20051;-64
2023/08/29 04:35:51;;;;;;;3.63;1.90;;;21.40;91.90;;;;;;5067336;28;20478;-70
2023/08/29 04:38:17;;;;;;;3.53;1.90;;;21.70;93.40;;;;;;5060250;28;20109;-67
2023/08/29 04:40:43;;;;;;;4.75;2.10;;;21.70;93.00;;;;;;5066506;28;20048;-66
2023/08/29 04:43:09;;;;;;;3.53;1.80;;;;;;;;;;5073727;28;20051;-65
2023/08/29 04:45:35;;;;;;;3.70;1.90;;;21.50;93.00;;;;;;5071782;28;20393;-66
2023/08/29 04:48:00;;;;;;;3.88;1.88;;;21.50;91.80;;;;;;5053838;28;20049;-65
2023/08/29 04:50:28;;;;;;;3.78;2.00;;;21.40;92.90;;;;;;5055056;28;20040;-69
2023/08/29 04:52:55;;;;;;;4.38;2.22;;;21.70;91.90;;;;;;5073986;28;20048;-66
2023/08/29 04:55:20;;;;;;;4.05;1.85;;;21.70;93.30;;;;;;5058703;28;20048;-67
2023/08/29 04:57:46;;;;;;;3.58;1.83;;;21.40;93.20;;;;;;5073751;28;20052;-67
2023/08/29 05:00:13;;;;;;;3.97;2.00;;;21.40;92.90;;;;;;5064072;28;20051;-68
2023/08/29 05:02:39;;;;;;;3.90;2.00;;;21.40;91.60;;;;;;5092134;28;20485;-64
2023/08/29 05:05:08;;;;;;;3.58;1.85;;;21.50;92.80;;;;;;5069607;28;20087;-64
2023/08/29 05:07:34;;;;;;;4.28;2.08;;;21.70;92.90;;;;;;5074147;28;20086;-65
2023/08/29 05:09:59;;;;;;;3.15;1.75;;;21.60;92.80;;;;;;5075191;28;20449;-66
2023/08/29 05:12:25;;;;;;;3.30;1.70;;;21.50;92.80;;;;;;5069583;28;20044;-68
2023/08/29 05:14:53;;;;;;;3.50;1.88;;;21.60;93.00;;;;;;5075296;28;20044;-67
2023/08/29 05:17:19;;;;;;;3.20;1.73;;;21.60;92.80;;;;;;5092550;28;20068;-65
2023/08/29 05:19:45;;;;;;;3.88;1.70;;;21.60;92.80;;;;;;5093703;28;20086;-67
2023/08/29 05:22:11;;;;;;;3.15;1.60;;;21.50;93.10;;;;;;5083943;28;20059;-66
2023/08/29 05:24:37;;;;;;;2.92;1.77;;;21.80;93.20;;;;;;5038539;28;20052;-69
2023/08/29 05:27:03;;;;;;;3.10;1.63;;;21.50;92.80;;;;;;5056610;28;20079;-66
2023/08/29 05:29:29;;;;;;;4.32;1.60;;;21.60;92.80;;;;;;5067391;28;20036;-64
2023/08/29 05:31:55;;;;;;;2.83;1.60;;;21.50;92.70;;;;;;5054808;28;20066;-68
2023/08/29 05:34:21;;;;;;;2.80;1.48;;;21.90;91.40;;;;;;5055288;28;20076;-69
2023/08/29 05:36:49;;;;;;;2.95;1.50;;;21.60;93.10;;;;;;5072998;28;20125;-67
2023/08/29 05:39:15;;;;;;;3.15;1.58;;;21.90;91.70;;;;;;5035604;28;20048;-65
2023/08/29 05:41:40;;;;;;;3.80;1.90;;;22.00;91.60;;;;;;5072597;28;20048;-67
2023/08/29 05:44:06;;;;;;;3.22;1.60;;;21.70;91.40;;;;;;5072378;28;20040;-69
2023/08/29 05:46:32;;;;;;;3.22;1.58;;;22.50;92.90;;;;;;5072962;28;20131;-66
2023/08/29 05:48:59;;;;;;;2.72;1.50;;;22.00;91.30;;;;;;5066730;28;20140;-68
2023/08/29 05:51:26;;;;;;;3.28;1.60;;;22.20;91.40;;;;;;5054510;28;20063;-67
2023/08/29 05:53:52;;;;;;;2.75;1.33;;;22.30;91.30;;;;;;5062908;28;20036;-66
2023/08/29 05:56:17;;;;;;;3.15;1.73;;;22.60;92.50;;;;;;5073238;28;20054;-64
2023/08/29 05:58:43;;;;;;;3.40;1.50;;;22.40;91.00;;;;;;5092440;28;20066;-69
2023/08/29 06:01:09;;;;;;;2.70;1.50;;;22.60;92.00;;;;;;5074901;28;20052;-65
2023/08/29 06:03:36;;;;;;;2.05;1.23;;;22.50;90.90;;;;;;5056167;28;20049;-65
2023/08/29 06:06:03;;;;;;;3.40;1.55;;;22.70;90.80;;;;;;5076511;28;20036;-68
2023/08/29 06:08:33;;;;;;;2.55;1.42;;;22.70;90.50;;;;;;5032556;28;20480;-70
2023/08/29 06:11:00;;;;;;;2.78;1.40;;;22.70;90.20;;;;;;5054063;28;20044;-70
2023/08/29 06:13:27;;;;;;;2.55;1.30;;;22.90;91.40;;;;;;5051942;28;20087;-67
2023/08/29 06:15:54;;;;;;;2.72;1.50;;;22.80;90.10;;;;;;5052722;28;20117;-71
2023/08/29 06:18:20;;;;;;;2.40;1.40;;;22.80;90.00;;;;;;5034702;28;20080;-69
2023/08/29 06:20:46;;;;;;;3.25;1.50;;;22.80;90.10;;;;;;5052664;28;20485;-69
2023/08/29 06:23:13;;;;;;;4.28;1.30;;;23.00;91.30;;;;;;5034467;28;20084;-65
2023/08/29 06:25:39;;;;;;;1.95;1.30;;;23.20;90.00;;;;;;5068447;28;20119;-64
2023/08/29 06:28:05;;;;;;;1.65;1.20;;;23.00;89.60;;;;;;5070953;28;20470;-68
2023/08/29 06:30:31;;;;;;;3.00;1.40;;;23.30;89.70;;;;;;5071896;28;20525;-64
2023/08/29 06:32:57;;;;;;;2.63;1.38;;;23.20;89.40;;;;;;5054577;28;20044;-65
2023/08/29 06:35:22;;;;;;;2.25;1.20;;;23.10;89.20;;;;;;5064876;28;20041;-64
2023/08/29 06:37:49;;;;;;;2.60;1.40;;;23.30;89.10;;;;;;5068549;28;20037;-67
2023/08/29 06:40:15;;;;;;;4.32;1.30;;;23.50;89.20;;;;;;5070114;28;20036;-65
2023/08/29 06:42:40;;;;;;;4.50;1.40;;;23.40;90.60;;;;;;5072099;28;20151;-63
2023/08/29 06:45:08;;;;;;;2.28;1.30;;;23.70;88.80;;;;;;5072275;28;20453;-67
2023/08/29 06:47:33;;;;;;;2.25;1.20;;;23.70;88.30;;;;;;5070982;28;20127;-68
2023/08/29 06:49:59;;;;;;;3.65;1.50;;;23.50;88.10;;;;;;5067649;28;20151;-64
2023/08/29 06:52:28;;;;;;;3.50;1.40;;;23.80;88.00;;;;;;5052577;28;20044;-67
2023/08/29 06:54:54;;;;;;;2.30;1.30;;;23.90;88.00;;;;;;5053874;28;20048;-68
2023/08/29 06:57:20;;;;;;;3.88;1.40;;;23.80;87.60;;;;;;5070814;28;20041;-67
2023/08/29 06:59:46;;;;;;;2.63;1.35;;;24.20;86.70;;;;;;5051070;28;20056;-65
2023/08/29 07:02:12;;;;;;;2.47;1.30;;;24.10;87.40;;;;;;5072066;28;20512;-62
2023/08/29 07:04:38;;;;;;;5.00;1.30;;;23.80;86.60;;;;;;5075054;28;20478;-68
2023/08/29 07:07:04;;;;;;;4.88;1.35;;;24.30;87.00;;;;;;5057618;28;20490;-67
2023/08/29 07:09:30;;;;;;;3.00;1.42;;;24.00;86.60;;;;;;5064905;28;20068;-68
2023/08/29 07:11:57;;;;;;;2.25;1.30;;;24.30;86.80;;;;;;5073613;28;20032;-68
2023/08/29 07:14:23;;;;;;;2.72;1.20;;;24.40;86.60;;;;;;5090843;28;20046;-65
2023/08/29 07:16:49;;;;;;;2.85;1.40;;;24.20;86.00;;;;;;5091120;28;20051;-66
2023/08/29 07:19:14;;;;;;;3.80;1.50;;;24.30;86.10;;;;;;5074066;28;20029;-62
2023/08/29 07:21:40;;;;;;;4.85;1.83;;;24.50;86.00;;;;;;5074366;28;20422;-63
2023/08/29 07:24:06;;;;;;;3.00;1.42;;;24.60;86.00;;;;;;5068054;28;20047;-66
2023/08/29 07:26:32;;;;;;;4.88;1.50;;;24.60;85.70;;;;;;5070187;28;20098;-65
2023/08/29 07:28:58;;;;;;;3.03;1.60;;;24.70;85.60;;;;;;5039776;28;20048;-68
2023/08/29 07:31:23;;;;;;;2.67;1.40;;;25.10;85.70;;;;;;5056175;28;20145;-66
2023/08/29 07:33:49;;;;;;;2.50;1.48;;;24.80;85.40;;;;;;5074171;28;20049;-65
2023/08/29 07:36:15;;;;;;;5.35;1.70;;;25.00;85.30;;;;;;5072285;28;20123;-64
2023/08/29 07:38:41;;;;;;;2.28;1.30;;;25.10;85.50;;;;;;5074122;28;20181;-63
2023/08/29 07:41:07;;;;;;;3.83;1.60;;;25.20;85.40;;;;;;5074486;28;20041;-64
2023/08/29 07:43:33;;;;;;;3.15;1.50;;;25.10;84.90;;;;;;5055526;28;20056;-63
2023/08/29 07:45:59;;;;;;;4.05;1.65;;;25.20;84.90;;;;;;5054432;28;20049;-62
2023/08/29 07:48:25;;;;;;;2.35;1.40;;;25.20;84.80;;;;;;5073214;28;20040;-65
2023/08/29 07:50:51;;;;;;;3.15;1.60;;;25.10;84.50;;;;;;5046545;28;20138;-64
2023/08/29 07:53:17;;;;;;;2.83;1.60;;;25.10;84.50;;;;;;5073456;28;20048;-63
2023/08/29 07:55:43;;;;;;;3.33;1.70;;;25.30;84.50;;;;;;5054767;28;20040;-65
2023/08/29 07:58:09;;;;;;;3.90;1.80;;;25.20;84.30;;;;;;5054683;28;20057;-62
2023/08/29 08:00:35;;;;;;;3.85;1.73;;;25.20;84.10;;;;;;5071101;28;20439;-66
2023/08/29 08:03:02;;;;;;;7.07;1.67;;;25.20;84.30;;;;;;5072443;28;20588;-63
2023/08/29 08:05:28;;;;;;;5.03;1.98;;;25.00;84.20;;;;;;5074065;28;20481;-66
2023/08/29 08:07:55;;;;;;;7.75;2.33;;;25.00;84.20;;;;;;5055398;28;20092;-66
2023/08/29 08:10:21;;;;;;;4.50;1.75;;;25.20;84.40;;;;;;5073726;28;20044;-67
2023/08/29 08:12:48;;;;;;;4.82;1.73;;;25.20;84.30;;;;;;5074486;28;20044;-63
2023/08/29 08:15:13;;;;;;;3.67;1.77;;;25.00;84.20;;;;;;5074261;28;20079;-64
2023/08/29 08:17:39;;;;;;;4.22;1.73;;;25.30;84.30;;;;;;5072248;28;20044;-68
2023/08/29 08:20:08;;;;;;;5.28;1.90;;;24.90;84.00;;;;;;5055995;28;20094;-73
2023/08/29 08:22:42;;;;;;;4.43;1.63;;;25.50;84.20;;;;;;5055677;28;20061;-74
2023/08/29 08:25:12;;;;;;;5.03;1.80;;;25.10;84.10;;;;;;5056498;28;20449;-73
2023/08/29 08:27:40;;;;;;;5.50;1.88;;;25.20;83.50;;;;;;5074008;28;20461;-63
2023/08/29 08:30:07;;;;;;;6.82;2.22;;;25.50;84.50;;;;;;5069677;28;20052;-70
2023/08/29 08:32:33;;;;;;;5.30;2.00;;;25.30;83.90;;;;;;5072965;28;20051;-71
2023/08/29 08:34:59;;;;;;;6.28;2.17;;;25.10;84.10;;;;;;5069832;28;20403;-68
2023/08/29 08:37:25;;;;;;;6.28;2.10;;;25.40;84.60;;;;;;5086527;28;20052;-69
2023/08/29 08:39:51;;;;;;;4.65;1.70;;;25.30;84.40;;;;;;5076562;28;20044;-69
2023/08/29 08:42:17;;;;;;;5.20;1.95;;;25.10;84.30;;;;;;5074247;28;20087;-70
2023/08/29 08:44:43;;;;;;;4.55;2.10;;;25.00;84.30;;;;;;5059485;28;20491;-71
2023/08/29 08:47:09;;;;;;;5.45;1.88;;;25.10;84.60;;;;;;5094207;28;20051;-72
2023/08/29 08:49:35;;;;;;;6.45;2.08;;;25.10;84.80;;;;;;5093968;28;20520;-70
2023/08/29 08:52:01;;;;;;;4.55;1.77;;;25.00;84.60;;;;;;5048947;28;20084;-74
2023/08/29 08:54:26;;;;;;;4.30;1.90;;;25.10;84.70;;;;;;5072513;28;20054;-71
2023/08/29 08:56:57;;;;;;;3.47;1.60;;;25.10;84.90;;;;;;5093820;28;20783;-74
2023/08/29 08:59:24;;;;;;;4.38;1.80;;;25.00;84.90;;;;;;5060268;28;20156;-75
2023/08/29 09:01:50;;;;;;;5.00;1.80;;;25.10;85.10;;;;;;5086051;28;20051;-71
2023/08/29 09:04:15;;;;;;;5.32;2.00;;;25.00;84.90;;;;;;5079701;28;20040;-68
2023/08/29 09:06:41;;;;;;;5.82;2.10;;;24.80;84.80;;;;;;5074022;28;20074;-67
2023/08/29 09:09:23;;;;;;;4.35;1.85;;;24.80;84.90;;;;;;5087291;28;20513;-72
2023/08/29 09:11:58;;;;;;;4.20;1.90;;;25.00;85.50;;;;;;5073816;28;20096;-65
2023/08/29 09:14:24;;;;;;;5.15;1.90;;;24.60;85.10;;;;;;5075139;28;20501;-71
2023/08/29 09:16:57;;;;;;;4.20;1.75;;;24.90;85.20;;;;;;5059112;28;20401;-69
2023/08/29 09:19:22;;;;;;;;;;;25.00;85.50;;;;;;5075719;28;20044;-71
2023/08/29 09:21:51;;;;;;;4.38;1.65;;;25.00;85.20;;;;;;5086840;28;20256;-65
2023/08/29 09:24:37;;;;;;;5.53;1.90;;;25.10;85.20;;;;;;5067292;28;20049;-66
2023/08/29 09:27:06;;;;;;;3.58;1.70;;;24.80;85.10;;;;;;5067803;28;20055;-72
2023/08/29 09:29:33;;;;;;;3.78;1.80;;;25.20;85.20;;;;;;5075636;28;20141;-65
2023/08/29 09:31:59;;;;;;;6.75;1.70;;;24.90;85.00;;;;;;5051707;28;20463;-63
2023/08/29 09:34:29;;;;;;;3.53;1.83;;;25.00;85.00;;;;;;5050335;28;20047;-63
2023/08/29 09:36:56;;;;;;;6.28;1.83;;;24.90;85.10;;;;;;5050702;28;20509;-68
2023/08/29 09:39:22;;;;;;;5.13;1.80;;;25.00;85.10;;;;;;5080870;28;20504;-72
2023/08/29 09:42:08;;;;;;;4.05;1.20;;;24.90;84.60;;;;;;5057786;28;20152;-72
2023/08/29 09:44:36;;;;;;;5.55;1.67;;;24.80;84.50;;;;;;5089127;28;20040;-68
2023/08/29 09:47:03;;;;;;;3.78;1.55;;;25.00;84.30;;;;;;5073653;28;20046;-70
2023/08/29 09:49:42;;;;;;;4.85;1.80;;;24.90;83.60;;;;;;5088812;28;20481;-69
2023/08/29 09:52:10;;;;;;;3.58;2.00;;;25.10;83.50;;;;;;5064371;28;20105;-62
2023/08/29 09:54:44;;;;;;;3.08;1.70;;;25.20;82.00;;;;;;5071145;28;20047;-74
2023/08/29 09:57:10;;;;;;;3.70;2.28;;;25.10;81.70;;;;;;5074802;28;20044;-69
2023/08/29 09:59:38;;;;;;;5.43;1.90;;;25.10;82.40;;;;;;5065408;28;20040;-62
2023/08/29 10:02:04;;;;;;;5.00;2.15;;;25.20;82.70;;;;;;5065154;28;20087;-70
2023/08/29 10:04:30;;;;;;;3.33;1.70;;;25.40;82.50;;;;;;5064474;28;20472;-68
2023/08/29 10:06:56;;;;;;;4.10;1.85;;;25.10;81.90;;;;;;5072785;28;20091;-71
2023/08/29 10:09:22;;;;;;;3.97;1.60;;;25.20;82.10;;;;;;5092737;28;20090;-65
2023/08/29 10:11:48;;;;;;;3.85;1.40;;;25.10;81.70;;;;;;5092563;28;20111;-73
2023/08/29 10:14:14;;;;;;;3.40;1.48;;;25.20;81.70;;;;;;5041527;28;20059;-68
2023/08/29 10:16:40;;;;;;;3.70;1.52;;;25.10;81.50;;;;;;5067055;28;20031;-68
2023/08/29 10:19:05;;;;;;;3.78;1.40;;;25.20;81.10;;;;;;5073620;28;20082;-71
2023/08/29 10:21:31;;;;;;;2.55;1.27;;;25.10;81.50;;;;;;5074389;28;20522;-72
2023/08/29 10:23:57;;;;;;;2.83;1.30;;;25.00;81.40;;;;;;5092763;28;20039;-69
2023/08/29 10:26:23;;;;;;;3.42;1.10;;;25.00;81.40;;;;;;5088721;28;20044;-66
2023/08/29 10:28:48;;;;;;;4.50;1.48;;;25.10;81.40;;;;;;5080078;28;20044;-64
2023/08/29 10:31:14;;;;;;;2.95;1.25;;;25.20;81.40;;;;;;5071240;28;20046;-67
2023/08/29 10:33:40;;;;;;;2.97;1.25;;;25.00;81.00;;;;;;5071014;28;20394;-70
2023/08/29 10:36:08;;;;;;;2.55;1.20;;;24.80;80.70;;;;;;5085783;28;20512;-67
2023/08/29 10:38:38;;;;;;;2.35;1.23;;;25.10;81.10;;;;;;5066410;28;20457;-69
2023/08/29 10:41:06;;;;;;;2.40;1.30;;;24.90;80.90;;;;;;5058026;28;20040;-65
2023/08/29 10:43:32;;;;;;;5.05;1.42;;;24.80;80.80;;;;;;5079061;28;20130;-67
2023/08/29 10:46:00;;;;;;;3.17;1.45;;;25.20;80.90;;;;;;5095588;28;20123;-66
2023/08/29 10:48:30;;;;;;;4.93;1.98;;;25.10;81.00;;;;;;5061378;28;20497;-66
2023/08/29 10:51:08;;;;;;;4.25;1.30;;;24.80;80.90;;;;;;5090742;28;20139;-71
2023/08/29 10:53:43;;;;;;;2.75;1.25;;;24.90;80.90;;;;;;5085490;28;20043;-65
2023/08/29 10:56:09;;;;;;;3.50;1.40;;;24.90;81.40;;;;;;5061303;28;20455;-71
2023/08/29 10:58:39;;;;;;;3.40;1.42;;;24.80;81.00;;;;;;5057419;28;20062;-70
2023/08/29 11:01:05;;;;;;;2.03;1.27;;;25.00;81.20;;;;;;5045804;28;20054;-67
2023/08/29 11:03:50;;;;;;;3.25;1.20;;;24.90;81.00;;;;;;5062546;28;20534;-67
2023/08/29 11:06:23;;;;;;;2.58;1.20;;;24.70;79.40;;;;;;5059667;28;20141;-72
2023/08/29 11:08:49;;;;;;;3.38;1.42;;;25.10;81.10;;;;;;5083655;28;20058;-63
2023/08/29 11:11:16;;;;;;;4.05;1.50;;;24.80;80.50;;;;;;5075269;28;20039;-62
2023/08/29 11:14:04;;;;;;;2.50;1.30;;;24.90;80.50;;;;;;5094457;28;20436;-64
2023/08/29 11:16:34;;;;;;;3.17;1.20;;;25.10;79.50;;;;;;5092546;28;20043;-65
2023/08/29 11:19:07;;;;;;;2.80;1.27;;;25.00;80.90;;;;;;5073591;28;20059;-66
2023/08/29 11:21:33;;;;;;;2.10;1.20;;;24.90;79.50;;;;;;5074525;28;20165;-67
2023/08/29 11:23:59;;;;;;;3.42;1.60;;;24.90;80.60;;;;;;5095620;28;20036;-62
2023/08/29 11:26:25;;;;;;;2.70;1.38;;;25.10;80.80;;;;;;5091984;28;20094;-62
2023/08/29 11:28:51;;;;;;;2.83;1.30;;;25.00;80.80;;;;;;5093785;28;20101;-62
2023/08/29 11:31:20;;;;;;;4.60;1.42;;;25.10;80.70;;;;;;5075040;28;20036;-63
2023/08/29 11:33:49;;;;;;;2.67;1.40;;;25.10;80.50;;;;;;5081183;28;20044;-62
2023/08/29 11:36:15;;;;;;;2.70;1.40;;;25.10;80.30;;;;;;5067017;28;20043;-62
2023/08/29 11:38:42;;;;;;;3.05;1.40;;;25.00;80.60;;;;;;5094335;28;20040;-62
2023/08/29 11:41:08;;;;;;;4.85;1.40;;;24.90;80.50;;;;;;5075632;28;20051;-62
2023/08/29 11:43:34;;;;;;;3.72;1.67;;;25.20;80.50;;;;;;5094353;28;20123;-62
2023/08/29 11:46:01;;;;;;;2.53;1.23;;;25.00;80.40;;;;;;5087763;28;20498;-65
2023/08/29 11:48:29;;;;;;;4.28;1.48;;;25.20;80.60;;;;;;5094039;28;20101;-66
2023/08/29 11:50:55;;;;;;;2.63;1.27;;;25.10;80.10;;;;;;5092378;28;20043;-63
2023/08/29 11:53:22;;;;;;;3.47;1.65;;;25.10;79.80;;;;;;5095300;28;20032;-62
2023/08/29 11:55:49;;;;;;;2.13;1.27;;;25.10;79.90;;;;;;5077307;28;20051;-63
2023/08/29 11:58:15;;;;;;;2.88;1.33;;;25.20;80.00;;;;;;5080742;28;20057;-62
2023/08/29 12:00:41;;;;;;;2.70;1.23;;;25.20;79.90;;;;;;5065432;28;20055;-63
2023/08/29 12:03:06;;;;;;;2.50;1.23;;;25.10;79.60;;;;;;5091843;28;20032;-63
2023/08/29 12:05:32;;;;;;;2.80;1.20;;;25.10;79.80;;;;;;5060378;28;20440;-63
2023/08/29 12:07:58;;;;;;;2.28;1.17;;;25.30;80.40;;;;;;5095137;28;20397;-63
2023/08/29 12:10:26;;;;;;;2.85;1.17;;;25.00;80.10;;;;;;5076978;28;20104;-66
2023/08/29 12:12:52;;;;;;;2.63;1.20;;;25.30;80.30;;;;;;5088094;28;20165;-64
2023/08/29 12:15:17;;;;;;;1.88;1.05;;;25.20;80.10;;;;;;5077726;28;20486;-63
2023/08/29 12:17:46;;;;;;;3.80;1.27;;;25.10;80.00;;;;;;5079655;28;20395;-64
2023/08/29 12:20:12;;;;;;;2.00;1.20;;;25.30;80.40;;;;;;5039853;28;20051;-63
2023/08/29 12:22:39;;;;;;;2.55;1.20;;;25.20;80.00;;;;;;5074709;28;20044;-66
2023/08/29 12:25:05;;;;;;;2.42;1.10;;;25.40;80.30;;;;;;5074395;28;20574;-71
2023/08/29 12:27:31;;;;;;;3.45;1.35;;;25.60;80.40;;;;;;5070428;28;20040;-66
2023/08/29 12:29:57;;;;;;;2.35;1.05;;;25.40;80.20;;;;;;5094396;28;20067;-63
2023/08/29 12:32:27;;;;;;;2.40;1.02;;;25.40;80.20;;;;;;5075212;28;20055;-67
2023/08/29 12:34:54;;;;;;;2.05;1.02;;;25.40;80.70;;;;;;5039748;28;20131;-64
2023/08/29 12:37:20;;;;;;;2.47;1.40;;;25.30;80.70;;;;;;5060195;28;20063;-67
2023/08/29 12:39:46;;;;;;;2.15;1.00;;;25.30;80.50;;;;;;5094588;28;20048;-65
2023/08/29 12:42:12;;;;;;;1.75;1.10;;;25.30;80.60;;;;;;5075523;28;20066;-63
2023/08/29 12:44:38;;;;;;;2.88;1.40;;;25.60;81.00;;;;;;5075100;28;20184;-64
2023/08/29 12:47:04;;;;;;;1.65;0.90;;;25.30;80.90;;;;;;5092417;28;20056;-67